sensor_id;sensor_type;location;lat;lon;timestamp;P1;durP1;ratioP1;P2;durP2;ratioP2
59976;SDS011;45837;51.076;3.578;2024-01-27T00:01:37;6.68;;;2.45;;
59976;SDS011;45837;51.076;3.578;2024-01-27T00:04:02;6.18;;;2.78;;
59976;SDS011;45837;51.076;3.578;2024-01-27T00:06:28;5.43;;;2.10;;
59976;SDS011;45837;51.076;3.578;2024-01-27T00:08:54;5.43;;;2.55;;
59976;SDS011;45837;51.076;3.578;2024-01-27T00:11:20;6.50;;;2.97;;
59976;SDS011;45837;51.076;3.578;2024-01-27T00:13:46;5.40;;;2.67;;
59976;SDS011;45837;51.076;3.578;2024-01-27T00:16:11;6.18;;;2.75;;
59976;SDS011;45837;51.076;3.578;2024-01-27T00:18:37;4.57;;;2.30;;
59976;SDS011;45837;51.076;3.578;2024-01-27T00:21:04;6.38;;;2.85;;
59976;SDS011;45837;51.076;3.578;2024-01-27T00:23:31;5.90;;;2.63;;
59976;SDS011;45837;51.076;3.578;2024-01-27T00:25:57;7.00;;;2.90;;
59976;SDS011;45837;51.076;3.578;2024-01-27T00:28:23;5.28;;;2.50;;
59976;SDS011;45837;51.076;3.578;2024-01-27T00:30:49;5.72;;;2.67;;
59976;SDS011;45837;51.076;3.578;2024-01-27T00:33:15;4.68;;;2.30;;
59976;SDS011;45837;51.076;3.578;2024-01-27T00:35:41;5.25;;;2.58;;
59976;SDS011;45837;51.076;3.578;2024-01-27T00:38:07;5.38;;;2.60;;
59976;SDS011;45837;51.076;3.578;2024-01-27T00:40:33;5.72;;;2.55;;
59976;SDS011;45837;51.076;3.578;2024-01-27T00:42:59;5.38;;;2.47;;
59976;SDS011;45837;51.076;3.578;2024-01-27T00:45:25;5.93;;;2.17;;
59976;SDS011;45837;51.076;3.578;2024-01-27T00:47:52;5.47;;;2.65;;
59976;SDS011;45837;51.076;3.578;2024-01-27T00:50:18;7.07;;;2.53;;
59976;SDS011;45837;51.076;3.578;2024-01-27T00:52:44;5.68;;;2.50;;
59976;SDS011;45837;51.076;3.578;2024-01-27T00:55:10;5.25;;;2.55;;
59976;SDS011;45837;51.076;3.578;2024-01-27T00:57:36;6.30;;;2.58;;
59976;SDS011;45837;51.076;3.578;2024-01-27T01:00:08;4.53;;;2.60;;
59976;SDS011;45837;51.076;3.578;2024-01-27T01:02:36;6.57;;;2.67;;
59976;SDS011;45837;51.076;3.578;2024-01-27T01:05:03;7.10;;;3.05;;
59976;SDS011;45837;51.076;3.578;2024-01-27T01:07:30;4.28;;;2.30;;
59976;SDS011;45837;51.076;3.578;2024-01-27T01:09:56;6.22;;;2.90;;
59976;SDS011;45837;51.076;3.578;2024-01-27T01:12:22;4.88;;;2.35;;
59976;SDS011;45837;51.076;3.578;2024-01-27T01:14:48;5.38;;;2.40;;
59976;SDS011;45837;51.076;3.578;2024-01-27T01:17:14;6.07;;;2.67;;
59976;SDS011;45837;51.076;3.578;2024-01-27T01:19:40;4.32;;;2.20;;
59976;SDS011;45837;51.076;3.578;2024-01-27T01:22:06;7.35;;;2.88;;
59976;SDS011;45837;51.076;3.578;2024-01-27T01:24:34;4.90;;;2.65;;
59976;SDS011;45837;51.076;3.578;2024-01-27T01:27:00;6.43;;;2.45;;
59976;SDS011;45837;51.076;3.578;2024-01-27T01:29:25;4.65;;;2.60;;
59976;SDS011;45837;51.076;3.578;2024-01-27T01:31:51;7.10;;;2.83;;
59976;SDS011;45837;51.076;3.578;2024-01-27T01:34:17;6.03;;;2.55;;
59976;SDS011;45837;51.076;3.578;2024-01-27T01:36:43;4.65;;;2.55;;
59976;SDS011;45837;51.076;3.578;2024-01-27T01:39:11;4.38;;;2.00;;
59976;SDS011;45837;51.076;3.578;2024-01-27T01:41:40;5.90;;;2.63;;
59976;SDS011;45837;51.076;3.578;2024-01-27T01:44:06;4.80;;;2.88;;
59976;SDS011;45837;51.076;3.578;2024-01-27T01:46:33;6.57;;;2.70;;
59976;SDS011;45837;51.076;3.578;2024-01-27T01:48:59;4.60;;;2.50;;
59976;SDS011;45837;51.076;3.578;2024-01-27T01:51:26;4.70;;;2.70;;
59976;SDS011;45837;51.076;3.578;2024-01-27T01:53:54;5.72;;;2.47;;
59976;SDS011;45837;51.076;3.578;2024-01-27T01:56:23;4.75;;;2.00;;
59976;SDS011;45837;51.076;3.578;2024-01-27T01:58:51;5.20;;;2.45;;
59976;SDS011;45837;51.076;3.578;2024-01-27T02:01:19;4.70;;;2.40;;
59976;SDS011;45837;51.076;3.578;2024-01-27T02:03:58;4.00;;;2.22;;
59976;SDS011;45837;51.076;3.578;2024-01-27T02:06:24;6.47;;;2.90;;
59976;SDS011;45837;51.076;3.578;2024-01-27T02:08:50;5.82;;;2.67;;
59976;SDS011;45837;51.076;3.578;2024-01-27T02:11:19;4.80;;;2.90;;
59976;SDS011;45837;51.076;3.578;2024-01-27T02:13:46;6.20;;;2.78;;
59976;SDS011;45837;51.076;3.578;2024-01-27T02:16:12;5.45;;;2.70;;
59976;SDS011;45837;51.076;3.578;2024-01-27T02:18:38;4.72;;;2.42;;
59976;SDS011;45837;51.076;3.578;2024-01-27T02:21:07;4.85;;;2.58;;
59976;SDS011;45837;51.076;3.578;2024-01-27T02:23:34;5.85;;;2.95;;
59976;SDS011;45837;51.076;3.578;2024-01-27T02:26:00;5.65;;;2.53;;
59976;SDS011;45837;51.076;3.578;2024-01-27T02:28:25;5.80;;;3.33;;
59976;SDS011;45837;51.076;3.578;2024-01-27T02:30:51;4.38;;;2.35;;
59976;SDS011;45837;51.076;3.578;2024-01-27T02:33:17;4.07;;;2.35;;
59976;SDS011;45837;51.076;3.578;2024-01-27T02:35:43;4.30;;;2.40;;
59976;SDS011;45837;51.076;3.578;2024-01-27T02:38:09;4.68;;;2.67;;
59976;SDS011;45837;51.076;3.578;2024-01-27T02:40:34;5.50;;;2.67;;
59976;SDS011;45837;51.076;3.578;2024-01-27T02:43:00;4.95;;;2.70;;
59976;SDS011;45837;51.076;3.578;2024-01-27T02:45:27;5.45;;;2.58;;
59976;SDS011;45837;51.076;3.578;2024-01-27T02:47:53;5.43;;;2.83;;
59976;SDS011;45837;51.076;3.578;2024-01-27T02:50:19;4.75;;;2.80;;
59976;SDS011;45837;51.076;3.578;2024-01-27T02:52:44;4.93;;;2.30;;
59976;SDS011;45837;51.076;3.578;2024-01-27T02:55:10;4.57;;;2.47;;
59976;SDS011;45837;51.076;3.578;2024-01-27T02:57:36;3.90;;;2.38;;
59976;SDS011;45837;51.076;3.578;2024-01-27T03:00:03;6.57;;;3.10;;
59976;SDS011;45837;51.076;3.578;2024-01-27T03:02:30;6.25;;;3.08;;
59976;SDS011;45837;51.076;3.578;2024-01-27T03:04:55;5.57;;;2.58;;
59976;SDS011;45837;51.076;3.578;2024-01-27T03:07:21;6.75;;;2.72;;
59976;SDS011;45837;51.076;3.578;2024-01-27T03:09:47;4.47;;;2.42;;
59976;SDS011;45837;51.076;3.578;2024-01-27T03:12:14;5.88;;;2.70;;
59976;SDS011;45837;51.076;3.578;2024-01-27T03:14:41;5.32;;;2.53;;
59976;SDS011;45837;51.076;3.578;2024-01-27T03:17:07;5.72;;;2.78;;
59976;SDS011;45837;51.076;3.578;2024-01-27T03:19:33;4.93;;;2.40;;
59976;SDS011;45837;51.076;3.578;2024-01-27T03:21:58;5.57;;;2.80;;
59976;SDS011;45837;51.076;3.578;2024-01-27T03:24:24;4.53;;;2.33;;
59976;SDS011;45837;51.076;3.578;2024-01-27T03:26:50;4.93;;;2.40;;
59976;SDS011;45837;51.076;3.578;2024-01-27T03:29:16;5.68;;;2.55;;
59976;SDS011;45837;51.076;3.578;2024-01-27T03:31:42;4.88;;;2.90;;
59976;SDS011;45837;51.076;3.578;2024-01-27T03:34:07;6.03;;;2.85;;
59976;SDS011;45837;51.076;3.578;2024-01-27T03:36:33;4.53;;;2.60;;
59976;SDS011;45837;51.076;3.578;2024-01-27T03:39:00;4.63;;;2.95;;
59976;SDS011;45837;51.076;3.578;2024-01-27T03:41:25;4.40;;;2.40;;
59976;SDS011;45837;51.076;3.578;2024-01-27T03:43:52;5.72;;;2.97;;
59976;SDS011;45837;51.076;3.578;2024-01-27T03:46:17;3.45;;;2.25;;
59976;SDS011;45837;51.076;3.578;2024-01-27T03:48:43;5.93;;;2.80;;
59976;SDS011;45837;51.076;3.578;2024-01-27T03:51:09;4.78;;;2.50;;
59976;SDS011;45837;51.076;3.578;2024-01-27T03:53:36;5.30;;;3.05;;
59976;SDS011;45837;51.076;3.578;2024-01-27T03:56:02;3.92;;;2.63;;
59976;SDS011;45837;51.076;3.578;2024-01-27T03:58:30;4.20;;;2.22;;
59976;SDS011;45837;51.076;3.578;2024-01-27T04:00:56;6.30;;;3.25;;
59976;SDS011;45837;51.076;3.578;2024-01-27T04:03:22;4.22;;;2.30;;
59976;SDS011;45837;51.076;3.578;2024-01-27T04:05:48;6.82;;;3.08;;
59976;SDS011;45837;51.076;3.578;2024-01-27T04:08:14;4.53;;;2.72;;
59976;SDS011;45837;51.076;3.578;2024-01-27T04:10:40;4.38;;;2.50;;
59976;SDS011;45837;51.076;3.578;2024-01-27T04:13:05;4.28;;;2.42;;
59976;SDS011;45837;51.076;3.578;2024-01-27T04:15:34;6.68;;;2.85;;
59976;SDS011;45837;51.076;3.578;2024-01-27T04:18:04;4.05;;;2.00;;
59976;SDS011;45837;51.076;3.578;2024-01-27T04:20:32;4.18;;;2.40;;
59976;SDS011;45837;51.076;3.578;2024-01-27T04:22:59;5.50;;;2.90;;
59976;SDS011;45837;51.076;3.578;2024-01-27T04:25:24;5.63;;;2.65;;
59976;SDS011;45837;51.076;3.578;2024-01-27T04:27:50;7.03;;;2.67;;
59976;SDS011;45837;51.076;3.578;2024-01-27T04:30:16;5.03;;;2.85;;
59976;SDS011;45837;51.076;3.578;2024-01-27T04:32:43;4.18;;;2.80;;
59976;SDS011;45837;51.076;3.578;2024-01-27T04:35:09;5.50;;;2.70;;
59976;SDS011;45837;51.076;3.578;2024-01-27T04:37:36;5.13;;;2.78;;
59976;SDS011;45837;51.076;3.578;2024-01-27T04:40:02;4.97;;;2.97;;
59976;SDS011;45837;51.076;3.578;2024-01-27T04:42:34;4.43;;;2.50;;
59976;SDS011;45837;51.076;3.578;2024-01-27T04:45:00;4.70;;;2.63;;
59976;SDS011;45837;51.076;3.578;2024-01-27T04:47:26;4.70;;;2.58;;
59976;SDS011;45837;51.076;3.578;2024-01-27T04:49:52;4.68;;;2.67;;
59976;SDS011;45837;51.076;3.578;2024-01-27T04:52:18;4.50;;;2.63;;
59976;SDS011;45837;51.076;3.578;2024-01-27T04:54:44;3.83;;;2.13;;
59976;SDS011;45837;51.076;3.578;2024-01-27T04:57:10;4.80;;;2.30;;
59976;SDS011;45837;51.076;3.578;2024-01-27T04:59:36;5.05;;;2.58;;
59976;SDS011;45837;51.076;3.578;2024-01-27T05:02:02;4.43;;;2.90;;
59976;SDS011;45837;51.076;3.578;2024-01-27T05:04:28;4.00;;;2.38;;
59976;SDS011;45837;51.076;3.578;2024-01-27T05:06:53;5.35;;;2.85;;
59976;SDS011;45837;51.076;3.578;2024-01-27T05:09:19;4.28;;;2.83;;
59976;SDS011;45837;51.076;3.578;2024-01-27T05:11:45;5.80;;;2.88;;
59976;SDS011;45837;51.076;3.578;2024-01-27T05:14:11;4.50;;;2.33;;
59976;SDS011;45837;51.076;3.578;2024-01-27T05:16:37;4.90;;;2.20;;
59976;SDS011;45837;51.076;3.578;2024-01-27T05:19:03;5.53;;;3.03;;
59976;SDS011;45837;51.076;3.578;2024-01-27T05:21:28;3.75;;;2.58;;
59976;SDS011;45837;51.076;3.578;2024-01-27T05:23:56;5.93;;;2.95;;
59976;SDS011;45837;51.076;3.578;2024-01-27T05:26:21;5.22;;;2.60;;
59976;SDS011;45837;51.076;3.578;2024-01-27T05:28:47;3.80;;;2.30;;
59976;SDS011;45837;51.076;3.578;2024-01-27T05:31:13;4.28;;;2.25;;
59976;SDS011;45837;51.076;3.578;2024-01-27T05:33:39;4.65;;;2.50;;
59976;SDS011;45837;51.076;3.578;2024-01-27T05:36:06;6.53;;;2.92;;
59976;SDS011;45837;51.076;3.578;2024-01-27T05:38:33;5.28;;;2.72;;
59976;SDS011;45837;51.076;3.578;2024-01-27T05:41:02;3.95;;;2.42;;
59976;SDS011;45837;51.076;3.578;2024-01-27T05:43:28;5.15;;;2.83;;
59976;SDS011;45837;51.076;3.578;2024-01-27T05:45:54;4.78;;;2.50;;
59976;SDS011;45837;51.076;3.578;2024-01-27T05:48:20;5.45;;;2.70;;
59976;SDS011;45837;51.076;3.578;2024-01-27T05:50:59;5.68;;;2.67;;
59976;SDS011;45837;51.076;3.578;2024-01-27T05:53:25;3.95;;;2.25;;
59976;SDS011;45837;51.076;3.578;2024-01-27T05:55:51;5.07;;;2.63;;
59976;SDS011;45837;51.076;3.578;2024-01-27T05:58:21;5.15;;;2.58;;
59976;SDS011;45837;51.076;3.578;2024-01-27T06:00:47;5.07;;;2.50;;
59976;SDS011;45837;51.076;3.578;2024-01-27T06:03:13;3.90;;;2.35;;
59976;SDS011;45837;51.076;3.578;2024-01-27T06:05:40;5.15;;;2.72;;
59976;SDS011;45837;51.076;3.578;2024-01-27T06:08:07;4.13;;;2.28;;
59976;SDS011;45837;51.076;3.578;2024-01-27T06:10:33;4.53;;;2.72;;
59976;SDS011;45837;51.076;3.578;2024-01-27T06:13:01;4.40;;;2.67;;
59976;SDS011;45837;51.076;3.578;2024-01-27T06:15:27;4.80;;;2.55;;
59976;SDS011;45837;51.076;3.578;2024-01-27T06:17:53;5.88;;;2.85;;
59976;SDS011;45837;51.076;3.578;2024-01-27T06:20:19;5.82;;;2.47;;
59976;SDS011;45837;51.076;3.578;2024-01-27T06:22:45;5.55;;;3.17;;
59976;SDS011;45837;51.076;3.578;2024-01-27T06:25:11;4.40;;;2.28;;
59976;SDS011;45837;51.076;3.578;2024-01-27T06:27:37;4.18;;;2.58;;
59976;SDS011;45837;51.076;3.578;2024-01-27T06:30:03;5.88;;;2.63;;
59976;SDS011;45837;51.076;3.578;2024-01-27T06:32:33;3.97;;;2.33;;
59976;SDS011;45837;51.076;3.578;2024-01-27T06:34:59;5.35;;;2.80;;
59976;SDS011;45837;51.076;3.578;2024-01-27T06:37:24;5.13;;;2.63;;
59976;SDS011;45837;51.076;3.578;2024-01-27T06:39:50;5.50;;;2.42;;
59976;SDS011;45837;51.076;3.578;2024-01-27T06:42:16;4.78;;;2.40;;
59976;SDS011;45837;51.076;3.578;2024-01-27T06:44:42;6.80;;;2.47;;
59976;SDS011;45837;51.076;3.578;2024-01-27T06:47:09;7.10;;;2.80;;
59976;SDS011;45837;51.076;3.578;2024-01-27T06:49:35;11.05;;;2.63;;
59976;SDS011;45837;51.076;3.578;2024-01-27T06:52:01;17.15;;;2.78;;
59976;SDS011;45837;51.076;3.578;2024-01-27T06:54:26;12.77;;;2.70;;
59976;SDS011;45837;51.076;3.578;2024-01-27T06:56:52;16.73;;;2.92;;
59976;SDS011;45837;51.076;3.578;2024-01-27T06:59:18;10.90;;;3.08;;
59976;SDS011;45837;51.076;3.578;2024-01-27T07:01:47;15.88;;;3.00;;
59976;SDS011;45837;51.076;3.578;2024-01-27T07:04:14;10.88;;;2.47;;
59976;SDS011;45837;51.076;3.578;2024-01-27T07:06:43;6.63;;;3.22;;
59976;SDS011;45837;51.076;3.578;2024-01-27T07:09:09;10.38;;;2.70;;
59976;SDS011;45837;51.076;3.578;2024-01-27T07:11:36;10.48;;;3.17;;
59976;SDS011;45837;51.076;3.578;2024-01-27T07:14:05;6.72;;;2.88;;
59976;SDS011;45837;51.076;3.578;2024-01-27T07:16:34;13.10;;;3.17;;
59976;SDS011;45837;51.076;3.578;2024-01-27T07:19:00;5.18;;;2.75;;
59976;SDS011;45837;51.076;3.578;2024-01-27T07:21:27;11.75;;;3.42;;
59976;SDS011;45837;51.076;3.578;2024-01-27T07:23:54;13.25;;;3.85;;
59976;SDS011;45837;51.076;3.578;2024-01-27T07:26:20;13.07;;;3.20;;
59976;SDS011;45837;51.076;3.578;2024-01-27T07:28:45;8.40;;;2.97;;
59976;SDS011;45837;51.076;3.578;2024-01-27T07:31:12;8.88;;;2.83;;
59976;SDS011;45837;51.076;3.578;2024-01-27T07:33:38;11.73;;;3.00;;
59976;SDS011;45837;51.076;3.578;2024-01-27T07:36:04;10.98;;;2.95;;
59976;SDS011;45837;51.076;3.578;2024-01-27T07:38:30;11.75;;;2.70;;
59976;SDS011;45837;51.076;3.578;2024-01-27T07:40:56;20.23;;;4.00;;
59976;SDS011;45837;51.076;3.578;2024-01-27T07:43:23;16.63;;;3.63;;
59976;SDS011;45837;51.076;3.578;2024-01-27T07:45:50;9.98;;;2.70;;
59976;SDS011;45837;51.076;3.578;2024-01-27T07:48:17;20.88;;;3.70;;
59976;SDS011;45837;51.076;3.578;2024-01-27T07:50:43;13.35;;;3.58;;
59976;SDS011;45837;51.076;3.578;2024-01-27T07:53:13;18.20;;;2.88;;
59976;SDS011;45837;51.076;3.578;2024-01-27T07:55:39;20.35;;;3.10;;
59976;SDS011;45837;51.076;3.578;2024-01-27T07:58:05;22.65;;;3.55;;
59976;SDS011;45837;51.076;3.578;2024-01-27T08:00:31;22.52;;;3.83;;
59976;SDS011;45837;51.076;3.578;2024-01-27T08:02:57;29.10;;;4.82;;
59976;SDS011;45837;51.076;3.578;2024-01-27T08:05:23;32.30;;;4.43;;
59976;SDS011;45837;51.076;3.578;2024-01-27T08:07:49;35.08;;;4.75;;
59976;SDS011;45837;51.076;3.578;2024-01-27T08:10:15;35.42;;;4.63;;
59976;SDS011;45837;51.076;3.578;2024-01-27T08:12:41;36.92;;;5.88;;
59976;SDS011;45837;51.076;3.578;2024-01-27T08:15:07;43.13;;;5.25;;
59976;SDS011;45837;51.076;3.578;2024-01-27T08:17:33;27.48;;;5.15;;
59976;SDS011;45837;51.076;3.578;2024-01-27T08:19:58;29.02;;;5.57;;
59976;SDS011;45837;51.076;3.578;2024-01-27T08:22:24;41.17;;;6.07;;
59976;SDS011;45837;51.076;3.578;2024-01-27T08:24:50;36.20;;;5.60;;
59976;SDS011;45837;51.076;3.578;2024-01-27T08:27:16;26.23;;;4.78;;
59976;SDS011;45837;51.076;3.578;2024-01-27T08:29:41;33.67;;;5.05;;
59976;SDS011;45837;51.076;3.578;2024-01-27T08:32:07;30.58;;;4.75;;
59976;SDS011;45837;51.076;3.578;2024-01-27T08:34:34;28.17;;;4.70;;
59976;SDS011;45837;51.076;3.578;2024-01-27T08:37:00;37.28;;;5.22;;
59976;SDS011;45837;51.076;3.578;2024-01-27T08:39:27;28.33;;;5.03;;
59976;SDS011;45837;51.076;3.578;2024-01-27T08:41:53;25.65;;;5.20;;
59976;SDS011;45837;51.076;3.578;2024-01-27T08:44:19;38.45;;;5.95;;
59976;SDS011;45837;51.076;3.578;2024-01-27T08:46:45;34.97;;;6.22;;
59976;SDS011;45837;51.076;3.578;2024-01-27T08:49:11;32.63;;;5.07;;
59976;SDS011;45837;51.076;3.578;2024-01-27T08:51:37;35.58;;;5.75;;
59976;SDS011;45837;51.076;3.578;2024-01-27T08:54:02;21.70;;;4.75;;
59976;SDS011;45837;51.076;3.578;2024-01-27T08:56:28;19.65;;;4.70;;
59976;SDS011;45837;51.076;3.578;2024-01-27T08:58:54;22.40;;;5.10;;
59976;SDS011;45837;51.076;3.578;2024-01-27T09:01:20;25.63;;;4.97;;
59976;SDS011;45837;51.076;3.578;2024-01-27T09:03:46;22.05;;;5.10;;
59976;SDS011;45837;51.076;3.578;2024-01-27T09:06:11;24.08;;;5.25;;
59976;SDS011;45837;51.076;3.578;2024-01-27T09:08:37;31.30;;;5.57;;
59976;SDS011;45837;51.076;3.578;2024-01-27T09:11:03;18.85;;;4.82;;
59976;SDS011;45837;51.076;3.578;2024-01-27T09:13:29;29.45;;;5.20;;
59976;SDS011;45837;51.076;3.578;2024-01-27T09:15:56;26.40;;;5.20;;
59976;SDS011;45837;51.076;3.578;2024-01-27T09:18:22;30.08;;;5.53;;
59976;SDS011;45837;51.076;3.578;2024-01-27T09:20:48;25.20;;;5.40;;
59976;SDS011;45837;51.076;3.578;2024-01-27T09:23:14;29.67;;;4.22;;
59976;SDS011;45837;51.076;3.578;2024-01-27T09:25:40;40.47;;;5.82;;
59976;SDS011;45837;51.076;3.578;2024-01-27T09:28:06;28.45;;;4.95;;
59976;SDS011;45837;51.076;3.578;2024-01-27T09:30:32;22.63;;;5.10;;
59976;SDS011;45837;51.076;3.578;2024-01-27T09:32:58;42.45;;;5.90;;
59976;SDS011;45837;51.076;3.578;2024-01-27T09:35:23;32.42;;;5.05;;
59976;SDS011;45837;51.076;3.578;2024-01-27T09:37:49;33.05;;;5.28;;
59976;SDS011;45837;51.076;3.578;2024-01-27T09:40:15;30.33;;;5.03;;
59976;SDS011;45837;51.076;3.578;2024-01-27T09:42:41;31.83;;;5.47;;
59976;SDS011;45837;51.076;3.578;2024-01-27T09:45:16;33.03;;;5.35;;
59976;SDS011;45837;51.076;3.578;2024-01-27T09:47:41;31.45;;;4.88;;
59976;SDS011;45837;51.076;3.578;2024-01-27T09:50:08;51.20;;;5.45;;
59976;SDS011;45837;51.076;3.578;2024-01-27T09:52:36;34.42;;;5.03;;
59976;SDS011;45837;51.076;3.578;2024-01-27T09:55:02;23.70;;;3.88;;
59976;SDS011;45837;51.076;3.578;2024-01-27T09:57:28;30.85;;;5.18;;
59976;SDS011;45837;51.076;3.578;2024-01-27T09:59:55;20.67;;;5.07;;
59976;SDS011;45837;51.076;3.578;2024-01-27T10:02:22;16.33;;;4.55;;
59976;SDS011;45837;51.076;3.578;2024-01-27T10:04:49;17.40;;;4.20;;
59976;SDS011;45837;51.076;3.578;2024-01-27T10:07:16;26.05;;;4.40;;
59976;SDS011;45837;51.076;3.578;2024-01-27T10:09:42;28.95;;;4.63;;
59976;SDS011;45837;51.076;3.578;2024-01-27T10:12:08;15.57;;;5.07;;
59976;SDS011;45837;51.076;3.578;2024-01-27T10:14:38;20.98;;;4.53;;
59976;SDS011;45837;51.076;3.578;2024-01-27T10:17:05;19.17;;;4.18;;
59976;SDS011;45837;51.076;3.578;2024-01-27T10:19:34;23.50;;;4.65;;
59976;SDS011;45837;51.076;3.578;2024-01-27T10:22:00;23.20;;;4.70;;
59976;SDS011;45837;51.076;3.578;2024-01-27T10:24:29;16.23;;;4.53;;
59976;SDS011;45837;51.076;3.578;2024-01-27T10:27:03;22.02;;;4.53;;
59976;SDS011;45837;51.076;3.578;2024-01-27T10:29:30;13.98;;;3.83;;
59976;SDS011;45837;51.076;3.578;2024-01-27T10:32:06;14.68;;;4.32;;
59976;SDS011;45837;51.076;3.578;2024-01-27T10:34:35;20.38;;;4.60;;
59976;SDS011;45837;51.076;3.578;2024-01-27T10:37:01;17.20;;;3.88;;
59976;SDS011;45837;51.076;3.578;2024-01-27T10:39:27;17.20;;;4.05;;
59976;SDS011;45837;51.076;3.578;2024-01-27T10:41:54;16.42;;;4.55;;
59976;SDS011;45837;51.076;3.578;2024-01-27T10:44:20;14.38;;;3.65;;
59976;SDS011;45837;51.076;3.578;2024-01-27T10:46:47;15.18;;;3.83;;
59976;SDS011;45837;51.076;3.578;2024-01-27T10:49:14;14.85;;;3.75;;
59976;SDS011;45837;51.076;3.578;2024-01-27T10:54:22;13.52;;;4.22;;
59976;SDS011;45837;51.076;3.578;2024-01-27T10:56:55;13.00;;;3.72;;
59976;SDS011;45837;51.076;3.578;2024-01-27T10:59:22;13.65;;;3.40;;
59976;SDS011;45837;51.076;3.578;2024-01-27T11:01:49;14.85;;;3.97;;
59976;SDS011;45837;51.076;3.578;2024-01-27T11:04:19;13.10;;;3.92;;
59976;SDS011;45837;51.076;3.578;2024-01-27T11:06:48;11.27;;;3.95;;
59976;SDS011;45837;51.076;3.578;2024-01-27T11:09:14;14.23;;;4.50;;
59976;SDS011;45837;51.076;3.578;2024-01-27T11:11:41;14.38;;;3.95;;
59976;SDS011;45837;51.076;3.578;2024-01-27T11:14:08;11.95;;;3.97;;
59976;SDS011;45837;51.076;3.578;2024-01-27T11:16:35;16.92;;;4.63;;
59976;SDS011;45837;51.076;3.578;2024-01-27T11:19:08;16.30;;;4.07;;
59976;SDS011;45837;51.076;3.578;2024-01-27T11:21:36;13.88;;;3.90;;
59976;SDS011;45837;51.076;3.578;2024-01-27T11:24:11;11.02;;;3.85;;
59976;SDS011;45837;51.076;3.578;2024-01-27T11:26:40;11.82;;;3.75;;
59976;SDS011;45837;51.076;3.578;2024-01-27T11:29:07;18.88;;;4.57;;
59976;SDS011;45837;51.076;3.578;2024-01-27T11:31:44;13.15;;;3.60;;
59976;SDS011;45837;51.076;3.578;2024-01-27T11:34:11;13.45;;;4.07;;
59976;SDS011;45837;51.076;3.578;2024-01-27T11:36:43;11.80;;;3.90;;
59976;SDS011;45837;51.076;3.578;2024-01-27T11:39:25;13.35;;;4.18;;
59976;SDS011;45837;51.076;3.578;2024-01-27T11:41:52;11.80;;;4.25;;
59976;SDS011;45837;51.076;3.578;2024-01-27T11:44:19;17.98;;;4.22;;
59976;SDS011;45837;51.076;3.578;2024-01-27T11:46:45;10.65;;;3.53;;
59976;SDS011;45837;51.076;3.578;2024-01-27T11:49:17;13.25;;;3.70;;
59976;SDS011;45837;51.076;3.578;2024-01-27T11:51:43;11.32;;;4.00;;
59976;SDS011;45837;51.076;3.578;2024-01-27T11:54:09;12.98;;;3.70;;
59976;SDS011;45837;51.076;3.578;2024-01-27T11:56:35;11.93;;;3.97;;
59976;SDS011;45837;51.076;3.578;2024-01-27T11:59:01;12.20;;;3.90;;
59976;SDS011;45837;51.076;3.578;2024-01-27T12:01:27;12.40;;;4.13;;
59976;SDS011;45837;51.076;3.578;2024-01-27T12:03:53;13.38;;;4.15;;
59976;SDS011;45837;51.076;3.578;2024-01-27T12:06:19;12.52;;;4.40;;
59976;SDS011;45837;51.076;3.578;2024-01-27T12:08:45;15.82;;;4.00;;
59976;SDS011;45837;51.076;3.578;2024-01-27T12:11:14;11.65;;;3.85;;
59976;SDS011;45837;51.076;3.578;2024-01-27T12:13:40;13.23;;;3.67;;
59976;SDS011;45837;51.076;3.578;2024-01-27T12:16:06;12.43;;;3.45;;
59976;SDS011;45837;51.076;3.578;2024-01-27T12:18:34;13.40;;;3.42;;
59976;SDS011;45837;51.076;3.578;2024-01-27T12:21:00;14.38;;;3.67;;
59976;SDS011;45837;51.076;3.578;2024-01-27T12:23:26;10.52;;;3.40;;
59976;SDS011;45837;51.076;3.578;2024-01-27T12:25:53;15.90;;;4.03;;
59976;SDS011;45837;51.076;3.578;2024-01-27T12:28:19;16.95;;;4.22;;
59976;SDS011;45837;51.076;3.578;2024-01-27T12:30:46;17.55;;;3.95;;
59976;SDS011;45837;51.076;3.578;2024-01-27T12:33:12;13.13;;;4.20;;
59976;SDS011;45837;51.076;3.578;2024-01-27T12:35:38;11.30;;;3.60;;
59976;SDS011;45837;51.076;3.578;2024-01-27T12:38:07;11.55;;;3.70;;
59976;SDS011;45837;51.076;3.578;2024-01-27T12:40:34;14.35;;;3.78;;
59976;SDS011;45837;51.076;3.578;2024-01-27T12:43:00;15.95;;;4.07;;
59976;SDS011;45837;51.076;3.578;2024-01-27T12:45:26;12.10;;;3.47;;
59976;SDS011;45837;51.076;3.578;2024-01-27T12:47:52;11.15;;;3.33;;
59976;SDS011;45837;51.076;3.578;2024-01-27T12:50:17;9.73;;;3.28;;
59976;SDS011;45837;51.076;3.578;2024-01-27T12:52:43;16.60;;;3.67;;
59976;SDS011;45837;51.076;3.578;2024-01-27T12:55:09;9.32;;;3.40;;
59976;SDS011;45837;51.076;3.578;2024-01-27T12:57:35;10.25;;;3.30;;
59976;SDS011;45837;51.076;3.578;2024-01-27T13:00:01;10.82;;;3.33;;
59976;SDS011;45837;51.076;3.578;2024-01-27T13:02:34;8.95;;;3.50;;
59976;SDS011;45837;51.076;3.578;2024-01-27T13:05:01;10.77;;;3.20;;
59976;SDS011;45837;51.076;3.578;2024-01-27T13:07:26;13.30;;;3.80;;
59976;SDS011;45837;51.076;3.578;2024-01-27T13:09:52;11.60;;;3.38;;
59976;SDS011;45837;51.076;3.578;2024-01-27T13:12:18;6.82;;;2.83;;
59976;SDS011;45837;51.076;3.578;2024-01-27T13:14:44;10.77;;;3.05;;
59976;SDS011;45837;51.076;3.578;2024-01-27T13:17:09;8.25;;;3.17;;
59976;SDS011;45837;51.076;3.578;2024-01-27T13:19:35;8.02;;;2.40;;
59976;SDS011;45837;51.076;3.578;2024-01-27T13:22:01;9.30;;;3.33;;
59976;SDS011;45837;51.076;3.578;2024-01-27T13:24:28;20.63;;;10.63;;
59976;SDS011;45837;51.076;3.578;2024-01-27T13:26:54;18.77;;;9.18;;
59976;SDS011;45837;51.076;3.578;2024-01-27T13:29:20;15.98;;;7.60;;
59976;SDS011;45837;51.076;3.578;2024-01-27T13:31:45;16.27;;;6.88;;
59976;SDS011;45837;51.076;3.578;2024-01-27T13:34:12;15.95;;;6.88;;
59976;SDS011;45837;51.076;3.578;2024-01-27T13:36:37;19.00;;;5.93;;
59976;SDS011;45837;51.076;3.578;2024-01-27T13:39:03;15.05;;;6.50;;
59976;SDS011;45837;51.076;3.578;2024-01-27T13:41:29;18.23;;;6.15;;
59976;SDS011;45837;51.076;3.578;2024-01-27T13:43:56;14.90;;;5.22;;
59976;SDS011;45837;51.076;3.578;2024-01-27T13:46:22;18.35;;;5.50;;
59976;SDS011;45837;51.076;3.578;2024-01-27T13:48:51;11.35;;;5.38;;
59976;SDS011;45837;51.076;3.578;2024-01-27T13:51:16;14.10;;;5.20;;
59976;SDS011;45837;51.076;3.578;2024-01-27T13:53:42;16.60;;;5.30;;
59976;SDS011;45837;51.076;3.578;2024-01-27T13:56:08;13.60;;;4.03;;
59976;SDS011;45837;51.076;3.578;2024-01-27T13:58:34;11.60;;;4.35;;
59976;SDS011;45837;51.076;3.578;2024-01-27T14:01:00;15.40;;;4.55;;
59976;SDS011;45837;51.076;3.578;2024-01-27T14:03:25;11.32;;;4.40;;
59976;SDS011;45837;51.076;3.578;2024-01-27T14:05:51;16.35;;;4.97;;
59976;SDS011;45837;51.076;3.578;2024-01-27T14:08:17;9.50;;;4.10;;
59976;SDS011;45837;51.076;3.578;2024-01-27T14:10:44;10.20;;;3.50;;
59976;SDS011;45837;51.076;3.578;2024-01-27T14:13:10;9.57;;;4.38;;
59976;SDS011;45837;51.076;3.578;2024-01-27T14:15:36;9.70;;;3.50;;
59976;SDS011;45837;51.076;3.578;2024-01-27T14:18:02;7.90;;;3.87;;
59976;SDS011;45837;51.076;3.578;2024-01-27T14:20:32;16.60;;;4.05;;
59976;SDS011;45837;51.076;3.578;2024-01-27T14:23:03;13.30;;;3.78;;
59976;SDS011;45837;51.076;3.578;2024-01-27T14:25:29;11.10;;;3.58;;
59976;SDS011;45837;51.076;3.578;2024-01-27T14:27:55;11.25;;;3.60;;
59976;SDS011;45837;51.076;3.578;2024-01-27T14:30:21;8.20;;;3.70;;
59976;SDS011;45837;51.076;3.578;2024-01-27T14:32:48;12.05;;;3.42;;
59976;SDS011;45837;51.076;3.578;2024-01-27T14:35:14;9.48;;;3.70;;
59976;SDS011;45837;51.076;3.578;2024-01-27T14:37:40;11.23;;;3.80;;
59976;SDS011;45837;51.076;3.578;2024-01-27T14:40:06;9.90;;;3.95;;